Time;durP1;ratioP1;P1;durP2;ratioP2;P2;SDS_P1;SDS_P2;PMS_P1;PMS_P2;Temp;Humidity;BMP_temperature;BMP_pressure;BME280_temperature;BME280_humidity;BME280_pressure;Samples;Min_cycle;Max_cycle;Signal;HPM_P1;HPM_P2
2024/02/15 21:28:00;;;;;;;67.90;16.30;;;;;;;;;;5110370;27;20543;-74
2024/02/15 21:30:29;;;;;;;63.20;9.07;;;;;;;;;;5109792;28;20452;-67
2024/02/15 21:32:56;;;;;;;62.60;7.50;;;;;;;;;;5109688;28;20452;-67
2024/02/15 21:35:59;;;;;;;61.90;7.33;;;;;;;;;;5096214;27;20619;-66
2024/02/15 21:38:26;;;;;;;62.50;7.30;;;;;;;;;;5089492;28;20438;-67
2024/02/15 21:40:53;;;;;;;62.50;7.37;;;;;;;;;;5089352;28;20440;-67
2024/02/15 21:43:20;;;;;;;61.37;6.80;;;;;;;;;;5089150;28;20798;-67
2024/02/15 21:45:47;;;;;;;65.40;7.10;;;;;;;;;;5089171;28;20463;-67
2024/02/15 21:48:15;;;;;;;61.70;7.30;;;;;;;;;;5088896;28;20453;-67
2024/02/15 21:50:42;;;;;;;60.57;6.83;;;;;;;;;;5089235;28;20457;-67
2024/02/15 21:53:11;;;;;;;63.67;6.90;;;;;;;;;;5088834;28;20963;-67
2024/02/15 21:55:39;;;;;;;60.67;6.77;;;;;;;;;;5088981;28;20495;-66
2024/02/15 21:58:06;;;;;;;62.07;6.67;;;;;;;;;;5088708;28;20461;-67
2024/02/15 22:00:33;;;;;;;61.57;7.60;;;;;;;;;;5088631;28;20832;-67
2024/02/15 22:03:01;;;;;;;63.67;7.30;;;;;;;;;;5088788;28;20445;-67
2024/02/15 22:05:29;;;;;;;59.80;7.13;;;;;;;;;;5088626;28;20460;-66
2024/02/15 22:07:56;;;;;;;62.77;7.13;;;;;;;;;;5088547;28;20449;-66
2024/02/15 22:10:24;;;;;;;63.83;7.70;;;;;;;;;;5088429;28;20454;-66
2024/02/15 22:12:52;;;;;;;60.67;7.33;;;;;;;;;;5088365;28;20479;-67
2024/02/15 22:15:19;;;;;;;65.83;7.20;;;;;;;;;;5088510;28;20496;-67
2024/02/15 22:17:46;;;;;;;64.20;7.27;;;;;;;;;;5088536;28;20444;-66
2024/02/15 22:20:14;;;;;;;62.30;7.13;;;;;;;;;;5088352;28;20444;-66
2024/02/15 22:22:41;;;;;;;60.50;7.00;;;;;;;;;;5088365;28;20453;-67
2024/02/15 22:25:10;;;;;;;61.10;7.10;;;;;;;;;;5088045;28;21012;-67
2024/02/15 22:27:39;;;;;;;62.07;7.50;;;;;;;;;;5088028;28;20456;-66
2024/02/15 22:30:07;;;;;;;69.80;7.73;;;;;;;;;;5088296;28;20451;-66
2024/02/15 22:32:34;;;;;;;61.47;7.20;;;;;;;;;;5088321;28;20871;-66
2024/02/15 22:35:01;;;;;;;64.57;7.50;;;;;;;;;;5087972;28;20570;-66
2024/02/15 22:37:28;;;;;;;65.37;6.93;;;;;;;;;;5087992;28;20446;-67
2024/02/15 22:39:55;;;;;;;61.90;7.43;;;;;;;;;;5088024;28;20443;-67
2024/02/15 22:42:23;;;;;;;62.97;7.83;;;;;;;;;;5087678;28;20445;-67
2024/02/15 22:44:51;;;;;;;61.87;7.50;;;;;;;;;;5087778;28;20497;-66
2024/02/15 22:47:18;;;;;;;64.67;8.30;;;;;;;;;;5074255;28;20444;-66
2024/02/15 22:49:46;;;;;;;62.80;7.27;;;;;;;;;;5074354;28;20457;-66
2024/02/15 22:52:14;;;;;;;60.40;6.73;;;;;;;;;;5074076;28;20449;-67
2024/02/15 22:54:46;;;;;;;61.00;6.77;;;;;;;;;;5074041;28;20491;-66
2024/02/15 22:57:15;;;;;;;60.70;6.77;;;;;;;;;;5074105;28;20933;-66
2024/02/15 22:59:42;;;;;;;63.37;6.57;;;;;;;;;;5074161;28;20505;-66
2024/02/15 23:02:11;;;;;;;61.50;6.70;;;;;;;;;;5073957;28;20830;-66
2024/02/15 23:04:38;;;;;;;62.63;7.37;;;;;;;;;;5074043;28;20452;-66
2024/02/15 23:07:08;;;;;;;63.23;6.40;;;;;;;;;;5068845;28;20441;-66
2024/02/15 23:09:35;;;;;;;61.27;7.00;;;;;;;;;;5066173;28;20454;-66
2024/02/15 23:12:02;;;;;;;62.80;8.07;;;;;;;;;;5073930;28;20472;-66
2024/02/15 23:14:30;;;;;;;59.87;6.33;;;;;;;;;;5073723;28;20492;-66
2024/02/15 23:16:57;;;;;;;62.40;7.60;;;;;;;;;;5073901;28;20456;-66
2024/02/15 23:19:26;;;;;;;63.40;6.50;;;;;;;;;;5073759;28;20444;-66
2024/02/15 23:21:53;;;;;;;63.77;7.03;;;;;;;;;;5073591;28;20480;-66
2024/02/15 23:24:20;;;;;;;62.57;6.90;;;;;;;;;;5073631;28;20535;-66
2024/02/15 23:26:47;;;;;;;63.63;8.23;;;;;;;;;;5073866;28;20445;-66
2024/02/15 23:29:15;;;;;;;62.87;6.27;;;;;;;;;;5073571;28;20448;-66
2024/02/15 23:31:42;;;;;;;60.33;6.00;;;;;;;;;;5073371;28;20456;-66
2024/02/15 23:34:10;;;;;;;59.57;6.40;;;;;;;;;;5073214;28;20460;-66
2024/02/15 23:39:45;;;;;;;60.27;6.70;;;;;;;;;;5073504;28;20941;-66
2024/02/15 23:42:11;;;;;;;60.50;7.60;;;;;;;;;;5073261;28;20456;-66
2024/02/15 23:44:38;;;;;;;60.90;6.97;;;;;;;;;;5073151;28;20444;-66
2024/02/15 23:47:06;;;;;;;61.37;6.83;;;;;;;;;;5073191;28;20450;-66
2024/02/15 23:49:33;;;;;;;60.57;6.50;;;;;;;;;;5073303;28;20448;-66
2024/02/15 23:52:02;;;;;;;64.47;7.77;;;;;;;;;;5073128;28;20560;-66
2024/02/15 23:54:29;;;;;;;61.77;7.13;;;;;;;;;;5073049;28;20461;-66
2024/02/15 23:56:56;;;;;;;61.10;6.23;;;;;;;;;;5072926;28;20451;-66
2024/02/15 23:59:23;;;;;;;64.40;7.10;;;;;;;;;;5072336;28;20456;-66
